sensor_id;sensor_type;location;lat;lon;timestamp;temperature;humidity
20610;DHT22;10463;52.378;9.688;2022-09-09T00:01:59;24.10;40.50
20610;DHT22;10463;52.378;9.688;2022-09-09T00:04:53;24.10;40.60
20610;DHT22;10463;52.378;9.688;2022-09-09T00:07:45;24.00;40.60
20610;DHT22;10463;52.378;9.688;2022-09-09T00:10:34;24.00;40.60
20610;DHT22;10463;52.378;9.688;2022-09-09T00:13:28;24.00;40.60
20610;DHT22;10463;52.378;9.688;2022-09-09T00:16:18;23.90;40.60
20610;DHT22;10463;52.378;9.688;2022-09-09T00:19:07;23.90;40.60
20610;DHT22;10463;52.378;9.688;2022-09-09T00:22:07;23.90;40.50
20610;DHT22;10463;52.378;9.688;2022-09-09T00:24:56;23.90;40.50
20610;DHT22;10463;52.378;9.688;2022-09-09T00:27:48;23.90;40.50
20610;DHT22;10463;52.378;9.688;2022-09-09T00:30:35;23.80;40.50
20610;DHT22;10463;52.378;9.688;2022-09-09T00:33:24;23.80;41.30
20610;DHT22;10463;52.378;9.688;2022-09-09T00:36:13;23.70;40.50
20610;DHT22;10463;52.378;9.688;2022-09-09T00:39:02;23.70;40.60
20610;DHT22;10463;52.378;9.688;2022-09-09T00:42:02;23.60;40.50
20610;DHT22;10463;52.378;9.688;2022-09-09T00:45:01;23.50;40.50
20610;DHT22;10463;52.378;9.688;2022-09-09T00:47:50;23.50;40.50
20610;DHT22;10463;52.378;9.688;2022-09-09T00:50:46;23.50;40.60
20610;DHT22;10463;52.378;9.688;2022-09-09T00:53:51;23.40;40.50
20610;DHT22;10463;52.378;9.688;2022-09-09T00:56:47;23.40;40.60
20610;DHT22;10463;52.378;9.688;2022-09-09T00:59:45;23.30;40.60
20610;DHT22;10463;52.378;9.688;2022-09-09T01:02:39;23.30;40.80
20610;DHT22;10463;52.378;9.688;2022-09-09T01:05:39;23.30;40.80
20610;DHT22;10463;52.378;9.688;2022-09-09T01:12:09;23.20;40.70
20610;DHT22;10463;52.378;9.688;2022-09-09T01:15:03;23.20;40.70
20610;DHT22;10463;52.378;9.688;2022-09-09T01:18:00;23.20;40.70
20610;DHT22;10463;52.378;9.688;2022-09-09T01:20:55;23.10;40.60
20610;DHT22;10463;52.378;9.688;2022-09-09T01:24:08;23.10;40.60
20610;DHT22;10463;52.378;9.688;2022-09-09T01:27:13;23.10;40.60
20610;DHT22;10463;52.378;9.688;2022-09-09T01:29:59;23.10;40.60
20610;DHT22;10463;52.378;9.688;2022-09-09T01:32:49;23.00;40.50
20610;DHT22;10463;52.378;9.688;2022-09-09T01:35:45;23.00;40.50
20610;DHT22;10463;52.378;9.688;2022-09-09T01:38:33;23.00;40.50
20610;DHT22;10463;52.378;9.688;2022-09-09T01:41:19;23.00;40.50
20610;DHT22;10463;52.378;9.688;2022-09-09T01:44:11;22.90;40.40
20610;DHT22;10463;52.378;9.688;2022-09-09T01:46:58;23.00;40.50
20610;DHT22;10463;52.378;9.688;2022-09-09T01:49:43;23.00;40.40
20610;DHT22;10463;52.378;9.688;2022-09-09T01:52:37;23.00;40.40
20610;DHT22;10463;52.378;9.688;2022-09-09T01:55:30;23.00;40.30
20610;DHT22;10463;52.378;9.688;2022-09-09T01:58:27;23.10;40.30
20610;DHT22;10463;52.378;9.688;2022-09-09T02:01:26;23.10;40.20
20610;DHT22;10463;52.378;9.688;2022-09-09T02:04:31;23.10;40.10
20610;DHT22;10463;52.378;9.688;2022-09-09T02:07:35;23.10;40.00
20610;DHT22;10463;52.378;9.688;2022-09-09T02:10:28;23.10;40.00
20610;DHT22;10463;52.378;9.688;2022-09-09T02:13:26;23.10;40.00
20610;DHT22;10463;52.378;9.688;2022-09-09T02:16:17;23.10;40.00
20610;DHT22;10463;52.378;9.688;2022-09-09T02:19:09;23.10;39.90
20610;DHT22;10463;52.378;9.688;2022-09-09T02:22:22;23.10;40.60
20610;DHT22;10463;52.378;9.688;2022-09-09T02:25:11;23.10;39.90
20610;DHT22;10463;52.378;9.688;2022-09-09T02:27:57;23.10;39.90
20610;DHT22;10463;52.378;9.688;2022-09-09T02:30:46;23.10;39.80
20610;DHT22;10463;52.378;9.688;2022-09-09T02:33:41;23.10;39.80
20610;DHT22;10463;52.378;9.688;2022-09-09T02:36:31;23.10;39.80
20610;DHT22;10463;52.378;9.688;2022-09-09T02:39:18;23.10;39.80
20610;DHT22;10463;52.378;9.688;2022-09-09T02:42:04;23.10;39.80
20610;DHT22;10463;52.378;9.688;2022-09-09T02:44:50;23.00;39.90
20610;DHT22;10463;52.378;9.688;2022-09-09T02:47:37;23.00;39.90
20610;DHT22;10463;52.378;9.688;2022-09-09T02:50:34;23.00;39.90
20610;DHT22;10463;52.378;9.688;2022-09-09T02:53:24;22.90;39.90
20610;DHT22;10463;52.378;9.688;2022-09-09T02:56:15;22.90;39.90
20610;DHT22;10463;52.378;9.688;2022-09-09T02:59:03;22.90;39.90
20610;DHT22;10463;52.378;9.688;2022-09-09T03:01:50;22.90;40.00
20610;DHT22;10463;52.378;9.688;2022-09-09T03:04:34;22.90;40.00
20610;DHT22;10463;52.378;9.688;2022-09-09T03:07:21;22.90;40.00
20610;DHT22;10463;52.378;9.688;2022-09-09T03:10:08;22.80;40.10
20610;DHT22;10463;52.378;9.688;2022-09-09T03:12:55;22.80;40.20
20610;DHT22;10463;52.378;9.688;2022-09-09T03:15:40;22.80;40.20
20610;DHT22;10463;52.378;9.688;2022-09-09T03:18:28;22.80;40.30
20610;DHT22;10463;52.378;9.688;2022-09-09T03:21:13;22.70;40.20
20610;DHT22;10463;52.378;9.688;2022-09-09T03:24:01;22.70;40.20
20610;DHT22;10463;52.378;9.688;2022-09-09T03:26:48;22.70;40.20
20610;DHT22;10463;52.378;9.688;2022-09-09T03:29:34;22.70;40.20
20610;DHT22;10463;52.378;9.688;2022-09-09T03:32:22;22.70;40.20
20610;DHT22;10463;52.378;9.688;2022-09-09T03:35:08;22.80;40.30
20610;DHT22;10463;52.378;9.688;2022-09-09T03:37:53;22.80;40.30
20610;DHT22;10463;52.378;9.688;2022-09-09T03:40:48;22.80;40.30
20610;DHT22;10463;52.378;9.688;2022-09-09T03:43:34;22.80;40.40
20610;DHT22;10463;52.378;9.688;2022-09-09T03:46:20;22.70;40.50
20610;DHT22;10463;52.378;9.688;2022-09-09T03:49:05;22.70;40.60
20610;DHT22;10463;52.378;9.688;2022-09-09T03:51:50;22.70;40.60
20610;DHT22;10463;52.378;9.688;2022-09-09T03:54:35;22.70;40.70
20610;DHT22;10463;52.378;9.688;2022-09-09T03:57:21;22.70;40.70
20610;DHT22;10463;52.378;9.688;2022-09-09T04:00:08;22.60;40.70
20610;DHT22;10463;52.378;9.688;2022-09-09T04:03:08;22.60;40.70
20610;DHT22;10463;52.378;9.688;2022-09-09T04:05:54;22.60;40.80
20610;DHT22;10463;52.378;9.688;2022-09-09T04:08:40;22.60;41.40
20610;DHT22;10463;52.378;9.688;2022-09-09T04:11:26;22.70;40.80
20610;DHT22;10463;52.378;9.688;2022-09-09T04:14:15;22.70;40.80
20610;DHT22;10463;52.378;9.688;2022-09-09T04:17:00;22.70;41.00
20610;DHT22;10463;52.378;9.688;2022-09-09T04:19:45;22.70;40.70
20610;DHT22;10463;52.378;9.688;2022-09-09T04:22:31;22.70;40.70
20610;DHT22;10463;52.378;9.688;2022-09-09T04:25:16;22.70;40.70
20610;DHT22;10463;52.378;9.688;2022-09-09T04:28:02;22.70;40.70
20610;DHT22;10463;52.378;9.688;2022-09-09T04:30:49;22.70;40.80
20610;DHT22;10463;52.378;9.688;2022-09-09T04:33:35;22.70;40.80
20610;DHT22;10463;52.378;9.688;2022-09-09T04:36:21;22.70;41.00
20610;DHT22;10463;52.378;9.688;2022-09-09T04:39:08;22.70;41.00
20610;DHT22;10463;52.378;9.688;2022-09-09T04:41:52;22.70;41.10
20610;DHT22;10463;52.378;9.688;2022-09-09T04:44:50;22.60;41.20
20610;DHT22;10463;52.378;9.688;2022-09-09T04:47:36;22.60;41.30
20610;DHT22;10463;52.378;9.688;2022-09-09T04:50:21;22.60;41.20
20610;DHT22;10463;52.378;9.688;2022-09-09T04:53:06;22.60;41.20
20610;DHT22;10463;52.378;9.688;2022-09-09T04:56:02;22.60;41.30
20610;DHT22;10463;52.378;9.688;2022-09-09T04:58:49;22.60;41.40
20610;DHT22;10463;52.378;9.688;2022-09-09T05:01:34;22.50;41.40
20610;DHT22;10463;52.378;9.688;2022-09-09T05:04:23;22.50;41.40
20610;DHT22;10463;52.378;9.688;2022-09-09T05:07:08;22.50;41.50
20610;DHT22;10463;52.378;9.688;2022-09-09T05:09:54;22.50;41.60
20610;DHT22;10463;52.378;9.688;2022-09-09T05:12:38;22.50;41.70
20610;DHT22;10463;52.378;9.688;2022-09-09T05:15:24;22.50;41.80
20610;DHT22;10463;52.378;9.688;2022-09-09T05:18:08;22.50;41.80
20610;DHT22;10463;52.378;9.688;2022-09-09T05:21:00;22.50;41.80
20610;DHT22;10463;52.378;9.688;2022-09-09T05:23:46;22.50;41.80
20610;DHT22;10463;52.378;9.688;2022-09-09T05:26:31;22.50;41.90
20610;DHT22;10463;52.378;9.688;2022-09-09T05:29:17;22.40;41.90
20610;DHT22;10463;52.378;9.688;2022-09-09T05:32:04;22.40;42.00
20610;DHT22;10463;52.378;9.688;2022-09-09T05:34:49;22.40;42.10
20610;DHT22;10463;52.378;9.688;2022-09-09T05:37:35;22.40;42.20
20610;DHT22;10463;52.378;9.688;2022-09-09T05:40:21;22.40;42.20
20610;DHT22;10463;52.378;9.688;2022-09-09T05:43:07;22.40;42.30
20610;DHT22;10463;52.378;9.688;2022-09-09T05:46:01;22.40;42.30
20610;DHT22;10463;52.378;9.688;2022-09-09T05:48:48;22.40;42.30
20610;DHT22;10463;52.378;9.688;2022-09-09T05:51:35;22.40;42.30
20610;DHT22;10463;52.378;9.688;2022-09-09T05:54:26;22.40;42.30
20610;DHT22;10463;52.378;9.688;2022-09-09T05:57:12;22.40;42.50
20610;DHT22;10463;52.378;9.688;2022-09-09T05:59:57;22.40;42.50
20610;DHT22;10463;52.378;9.688;2022-09-09T06:02:43;22.40;42.60
20610;DHT22;10463;52.378;9.688;2022-09-09T06:05:31;22.40;42.60
20610;DHT22;10463;52.378;9.688;2022-09-09T06:08:17;22.40;42.70
20610;DHT22;10463;52.378;9.688;2022-09-09T06:11:06;22.40;42.80
20610;DHT22;10463;52.378;9.688;2022-09-09T06:13:51;22.40;43.00
20610;DHT22;10463;52.378;9.688;2022-09-09T06:16:38;22.40;43.10
20610;DHT22;10463;52.378;9.688;2022-09-09T06:19:29;22.40;43.00
20610;DHT22;10463;52.378;9.688;2022-09-09T06:22:16;22.40;43.10
20610;DHT22;10463;52.378;9.688;2022-09-09T06:25:01;22.40;43.20
20610;DHT22;10463;52.378;9.688;2022-09-09T06:27:50;22.50;43.20
20610;DHT22;10463;52.378;9.688;2022-09-09T06:30:34;22.50;43.20
20610;DHT22;10463;52.378;9.688;2022-09-09T06:33:20;22.50;43.10
20610;DHT22;10463;52.378;9.688;2022-09-09T06:36:06;22.50;43.10
20610;DHT22;10463;52.378;9.688;2022-09-09T06:38:52;22.50;43.10
20610;DHT22;10463;52.378;9.688;2022-09-09T06:41:37;22.60;43.20
20610;DHT22;10463;52.378;9.688;2022-09-09T06:44:26;22.60;43.10
20610;DHT22;10463;52.378;9.688;2022-09-09T06:47:11;22.60;43.10
20610;DHT22;10463;52.378;9.688;2022-09-09T06:49:58;22.70;43.20
20610;DHT22;10463;52.378;9.688;2022-09-09T06:52:46;22.70;43.90
20610;DHT22;10463;52.378;9.688;2022-09-09T06:55:32;22.70;43.20
20610;DHT22;10463;52.378;9.688;2022-09-09T06:58:17;22.70;43.20
20610;DHT22;10463;52.378;9.688;2022-09-09T07:01:05;22.80;43.40
20610;DHT22;10463;52.378;9.688;2022-09-09T07:03:54;22.80;43.50
20610;DHT22;10463;52.378;9.688;2022-09-09T07:06:41;22.80;43.50
20610;DHT22;10463;52.378;9.688;2022-09-09T07:09:28;22.80;43.60
20610;DHT22;10463;52.378;9.688;2022-09-09T07:12:20;22.80;43.50
20610;DHT22;10463;52.378;9.688;2022-09-09T07:15:12;22.90;43.70
20610;DHT22;10463;52.378;9.688;2022-09-09T07:18:03;22.90;43.70
20610;DHT22;10463;52.378;9.688;2022-09-09T07:20:55;22.90;43.70
20610;DHT22;10463;52.378;9.688;2022-09-09T07:23:44;22.90;43.70
20610;DHT22;10463;52.378;9.688;2022-09-09T07:26:31;23.00;43.80
20610;DHT22;10463;52.378;9.688;2022-09-09T07:29:18;23.00;43.80
20610;DHT22;10463;52.378;9.688;2022-09-09T07:32:03;23.00;43.80
20610;DHT22;10463;52.378;9.688;2022-09-09T07:34:53;23.00;43.80
20610;DHT22;10463;52.378;9.688;2022-09-09T07:37:38;23.10;43.90
20610;DHT22;10463;52.378;9.688;2022-09-09T07:40:24;23.10;43.80
20610;DHT22;10463;52.378;9.688;2022-09-09T07:43:09;23.10;43.80
20610;DHT22;10463;52.378;9.688;2022-09-09T07:45:57;23.10;43.70
20610;DHT22;10463;52.378;9.688;2022-09-09T07:48:45;23.20;43.70
20610;DHT22;10463;52.378;9.688;2022-09-09T07:51:34;23.20;43.60
20610;DHT22;10463;52.378;9.688;2022-09-09T07:54:21;23.20;43.50
20610;DHT22;10463;52.378;9.688;2022-09-09T07:57:08;23.30;43.60
20610;DHT22;10463;52.378;9.688;2022-09-09T07:59:55;23.30;43.50
20610;DHT22;10463;52.378;9.688;2022-09-09T08:02:41;23.30;43.50
20610;DHT22;10463;52.378;9.688;2022-09-09T08:05:29;23.40;43.60
20610;DHT22;10463;52.378;9.688;2022-09-09T08:08:15;23.40;43.60
20610;DHT22;10463;52.378;9.688;2022-09-09T08:11:04;23.40;43.50
20610;DHT22;10463;52.378;9.688;2022-09-09T08:13:50;23.40;43.40
20610;DHT22;10463;52.378;9.688;2022-09-09T08:16:39;23.50;43.40
20610;DHT22;10463;52.378;9.688;2022-09-09T08:19:24;23.50;43.30
20610;DHT22;10463;52.378;9.688;2022-09-09T08:22:10;23.60;43.30
20610;DHT22;10463;52.378;9.688;2022-09-09T08:24:59;23.60;43.20
20610;DHT22;10463;52.378;9.688;2022-09-09T08:27:44;23.60;43.10
20610;DHT22;10463;52.378;9.688;2022-09-09T08:30:30;23.70;43.10
20610;DHT22;10463;52.378;9.688;2022-09-09T08:33:14;23.70;43.00
20610;DHT22;10463;52.378;9.688;2022-09-09T08:35:59;23.80;43.00
20610;DHT22;10463;52.378;9.688;2022-09-09T08:38:48;23.80;43.50
20610;DHT22;10463;52.378;9.688;2022-09-09T08:42:06;23.80;42.90
20610;DHT22;10463;52.378;9.688;2022-09-09T08:45:12;23.90;42.90
20610;DHT22;10463;52.378;9.688;2022-09-09T08:48:27;23.90;42.70
20610;DHT22;10463;52.378;9.688;2022-09-09T08:51:15;24.00;42.70
20610;DHT22;10463;52.378;9.688;2022-09-09T08:54:03;24.00;43.30
20610;DHT22;10463;52.378;9.688;2022-09-09T08:56:51;24.00;42.60
20610;DHT22;10463;52.378;9.688;2022-09-09T08:59:36;24.10;42.50
20610;DHT22;10463;52.378;9.688;2022-09-09T09:02:26;24.10;42.40
20610;DHT22;10463;52.378;9.688;2022-09-09T09:05:24;24.10;42.30
20610;DHT22;10463;52.378;9.688;2022-09-09T09:08:20;24.20;42.30
20610;DHT22;10463;52.378;9.688;2022-09-09T09:15:44;24.30;42.20
20610;DHT22;10463;52.378;9.688;2022-09-09T09:18:34;24.30;42.10
20610;DHT22;10463;52.378;9.688;2022-09-09T09:22:18;24.30;42.10
20610;DHT22;10463;52.378;9.688;2022-09-09T09:25:20;24.30;42.00
20610;DHT22;10463;52.378;9.688;2022-09-09T09:28:16;24.30;42.00
20610;DHT22;10463;52.378;9.688;2022-09-09T09:31:12;24.30;41.90
20610;DHT22;10463;52.378;9.688;2022-09-09T09:34:01;24.30;41.80
20610;DHT22;10463;52.378;9.688;2022-09-09T09:36:56;24.40;41.90
20610;DHT22;10463;52.378;9.688;2022-09-09T09:40:09;24.40;42.00
20610;DHT22;10463;52.378;9.688;2022-09-09T09:43:54;24.40;41.80
20610;DHT22;10463;52.378;9.688;2022-09-09T09:46:47;24.40;41.70
20610;DHT22;10463;52.378;9.688;2022-09-09T09:49:38;24.50;41.80
20610;DHT22;10463;52.378;9.688;2022-09-09T09:52:26;24.50;41.70
20610;DHT22;10463;52.378;9.688;2022-09-09T09:55:21;24.50;41.70
20610;DHT22;10463;52.378;9.688;2022-09-09T09:58:16;24.60;41.80
20610;DHT22;10463;52.378;9.688;2022-09-09T10:01:03;24.60;41.70
20610;DHT22;10463;52.378;9.688;2022-09-09T10:03:53;24.60;41.70
20610;DHT22;10463;52.378;9.688;2022-09-09T10:06:39;24.60;41.60
20610;DHT22;10463;52.378;9.688;2022-09-09T10:09:28;24.70;41.60
20610;DHT22;10463;52.378;9.688;2022-09-09T10:12:24;24.70;41.50
20610;DHT22;10463;52.378;9.688;2022-09-09T10:18:54;24.80;41.30
20610;DHT22;10463;52.378;9.688;2022-09-09T10:25:35;24.90;40.90
20610;DHT22;10463;52.378;9.688;2022-09-09T10:28:37;24.90;40.70
20610;DHT22;10463;52.378;9.688;2022-09-09T10:31:36;25.00;40.70
20610;DHT22;10463;52.378;9.688;2022-09-09T10:34:48;25.00;40.50
20610;DHT22;10463;52.378;9.688;2022-09-09T10:41:19;25.00;40.10
20610;DHT22;10463;52.378;9.688;2022-09-09T10:44:30;25.10;39.90
20610;DHT22;10463;52.378;9.688;2022-09-09T10:48:07;25.10;39.90
20610;DHT22;10463;52.378;9.688;2022-09-09T10:51:12;25.10;39.90
20610;DHT22;10463;52.378;9.688;2022-09-09T10:54:27;25.10;40.00
20610;DHT22;10463;52.378;9.688;2022-09-09T10:57:24;25.10;39.90
20610;DHT22;10463;52.378;9.688;2022-09-09T11:00:18;25.10;39.80
20610;DHT22;10463;52.378;9.688;2022-09-09T11:03:05;25.20;39.80
20610;DHT22;10463;52.378;9.688;2022-09-09T11:06:09;25.20;39.80
20610;DHT22;10463;52.378;9.688;2022-09-09T11:09:02;25.20;39.80
20610;DHT22;10463;52.378;9.688;2022-09-09T11:11:55;25.20;39.60
20610;DHT22;10463;52.378;9.688;2022-09-09T11:14:44;25.20;39.60
20610;DHT22;10463;52.378;9.688;2022-09-09T11:17:38;25.20;39.70
20610;DHT22;10463;52.378;9.688;2022-09-09T11:20:25;25.20;39.70
20610;DHT22;10463;52.378;9.688;2022-09-09T11:23:17;25.20;39.80
20610;DHT22;10463;52.378;9.688;2022-09-09T11:26:05;25.20;40.00
20610;DHT22;10463;52.378;9.688;2022-09-09T11:29:08;25.20;40.00
20610;DHT22;10463;52.378;9.688;2022-09-09T11:32:12;25.20;40.00
20610;DHT22;10463;52.378;9.688;2022-09-09T11:35:19;25.20;40.00
20610;DHT22;10463;52.378;9.688;2022-09-09T11:38:19;25.20;40.20
20610;DHT22;10463;52.378;9.688;2022-09-09T11:41:08;25.20;40.30
20610;DHT22;10463;52.378;9.688;2022-09-09T11:43:55;25.20;40.40
20610;DHT22;10463;52.378;9.688;2022-09-09T11:46:41;25.20;40.30
20610;DHT22;10463;52.378;9.688;2022-09-09T11:49:29;25.10;40.10
20610;DHT22;10463;52.378;9.688;2022-09-09T11:52:40;25.10;40.00
20610;DHT22;10463;52.378;9.688;2022-09-09T11:55:32;25.10;39.90
20610;DHT22;10463;52.378;9.688;2022-09-09T11:58:25;25.10;40.00
20610;DHT22;10463;52.378;9.688;2022-09-09T12:01:35;25.10;39.50
20610;DHT22;10463;52.378;9.688;2022-09-09T12:04:37;25.00;39.20
20610;DHT22;10463;52.378;9.688;2022-09-09T12:07:34;25.00;39.10
20610;DHT22;10463;52.378;9.688;2022-09-09T12:10:38;24.90;39.10
20610;DHT22;10463;52.378;9.688;2022-09-09T12:13:25;24.90;39.20
20610;DHT22;10463;52.378;9.688;2022-09-09T12:16:31;24.80;39.20
20610;DHT22;10463;52.378;9.688;2022-09-09T12:19:22;24.70;39.40
20610;DHT22;10463;52.378;9.688;2022-09-09T12:22:15;24.70;39.60
20610;DHT22;10463;52.378;9.688;2022-09-09T12:25:22;24.70;39.60
20610;DHT22;10463;52.378;9.688;2022-09-09T12:28:17;24.70;39.60
20610;DHT22;10463;52.378;9.688;2022-09-09T12:31:12;24.70;39.60
20610;DHT22;10463;52.378;9.688;2022-09-09T12:34:13;24.70;39.60
20610;DHT22;10463;52.378;9.688;2022-09-09T12:37:15;24.70;39.60
20610;DHT22;10463;52.378;9.688;2022-09-09T12:40:05;24.70;39.90
20610;DHT22;10463;52.378;9.688;2022-09-09T12:42:55;24.70;40.00
20610;DHT22;10463;52.378;9.688;2022-09-09T12:45:42;24.80;40.10
20610;DHT22;10463;52.378;9.688;2022-09-09T12:48:33;24.90;40.20
20610;DHT22;10463;52.378;9.688;2022-09-09T12:51:26;24.90;40.20
20610;DHT22;10463;52.378;9.688;2022-09-09T12:54:13;24.90;40.00
20610;DHT22;10463;52.378;9.688;2022-09-09T12:57:00;25.00;40.00
20610;DHT22;10463;52.378;9.688;2022-09-09T12:59:46;25.00;39.90
20610;DHT22;10463;52.378;9.688;2022-09-09T13:02:34;25.00;39.90
20610;DHT22;10463;52.378;9.688;2022-09-09T13:05:23;25.00;39.90
20610;DHT22;10463;52.378;9.688;2022-09-09T13:08:11;25.10;40.00
20610;DHT22;10463;52.378;9.688;2022-09-09T13:11:02;25.00;39.90
20610;DHT22;10463;52.378;9.688;2022-09-09T13:13:55;25.10;39.90
20610;DHT22;10463;52.378;9.688;2022-09-09T13:16:41;25.10;40.00
20610;DHT22;10463;52.378;9.688;2022-09-09T13:19:33;25.10;40.00
20610;DHT22;10463;52.378;9.688;2022-09-09T13:22:33;25.10;39.90
20610;DHT22;10463;52.378;9.688;2022-09-09T13:25:23;25.10;39.90
20610;DHT22;10463;52.378;9.688;2022-09-09T13:28:21;25.10;39.90
20610;DHT22;10463;52.378;9.688;2022-09-09T13:31:22;25.10;39.90
20610;DHT22;10463;52.378;9.688;2022-09-09T13:34:12;25.10;39.90
20610;DHT22;10463;52.378;9.688;2022-09-09T13:37:01;25.10;39.90
20610;DHT22;10463;52.378;9.688;2022-09-09T13:39:52;25.10;39.90
20610;DHT22;10463;52.378;9.688;2022-09-09T13:42:40;25.10;40.00
20610;DHT22;10463;52.378;9.688;2022-09-09T13:45:27;25.10;39.90
20610;DHT22;10463;52.378;9.688;2022-09-09T13:48:18;25.10;40.00
20610;DHT22;10463;52.378;9.688;2022-09-09T13:51:04;25.10;40.00
20610;DHT22;10463;52.378;9.688;2022-09-09T13:53:51;25.10;40.10
20610;DHT22;10463;52.378;9.688;2022-09-09T13:56:38;25.10;40.20
20610;DHT22;10463;52.378;9.688;2022-09-09T13:59:23;25.10;40.30
20610;DHT22;10463;52.378;9.688;2022-09-09T14:02:09;25.10;41.00
20610;DHT22;10463;52.378;9.688;2022-09-09T14:04:53;25.10;40.40
20610;DHT22;10463;52.378;9.688;2022-09-09T14:07:39;25.10;40.40
20610;DHT22;10463;52.378;9.688;2022-09-09T14:10:28;25.10;40.50
20610;DHT22;10463;52.378;9.688;2022-09-09T14:13:12;25.10;40.50
20610;DHT22;10463;52.378;9.688;2022-09-09T14:15:57;25.10;40.50
20610;DHT22;10463;52.378;9.688;2022-09-09T14:18:42;25.10;40.60
20610;DHT22;10463;52.378;9.688;2022-09-09T14:21:28;25.10;40.60
20610;DHT22;10463;52.378;9.688;2022-09-09T14:24:13;25.10;40.60
20610;DHT22;10463;52.378;9.688;2022-09-09T14:27:00;25.20;40.60
20610;DHT22;10463;52.378;9.688;2022-09-09T14:29:44;25.20;40.80
20610;DHT22;10463;52.378;9.688;2022-09-09T14:32:29;25.20;40.80
20610;DHT22;10463;52.378;9.688;2022-09-09T14:35:14;25.30;41.50
20610;DHT22;10463;52.378;9.688;2022-09-09T14:37:58;25.40;40.90
20610;DHT22;10463;52.378;9.688;2022-09-09T14:40:45;25.40;40.90
20610;DHT22;10463;52.378;9.688;2022-09-09T14:43:32;25.50;40.80
20610;DHT22;10463;52.378;9.688;2022-09-09T14:46:19;25.60;40.60
20610;DHT22;10463;52.378;9.688;2022-09-09T14:49:04;25.70;40.30
20610;DHT22;10463;52.378;9.688;2022-09-09T14:51:49;25.80;40.40
20610;DHT22;10463;52.378;9.688;2022-09-09T14:54:35;25.80;40.40
20610;DHT22;10463;52.378;9.688;2022-09-09T14:57:19;25.90;40.40
20610;DHT22;10463;52.378;9.688;2022-09-09T15:00:09;26.00;40.00
20610;DHT22;10463;52.378;9.688;2022-09-09T15:02:54;26.10;40.20
20610;DHT22;10463;52.378;9.688;2022-09-09T15:05:39;26.20;39.70
20610;DHT22;10463;52.378;9.688;2022-09-09T15:08:24;26.20;39.70
20610;DHT22;10463;52.378;9.688;2022-09-09T15:11:11;26.30;39.60
20610;DHT22;10463;52.378;9.688;2022-09-09T15:13:56;26.40;39.60
20610;DHT22;10463;52.378;9.688;2022-09-09T15:16:43;26.40;39.50
20610;DHT22;10463;52.378;9.688;2022-09-09T15:19:29;26.50;39.30
20610;DHT22;10463;52.378;9.688;2022-09-09T15:22:13;26.50;39.10
20610;DHT22;10463;52.378;9.688;2022-09-09T15:24:58;26.60;39.00
20610;DHT22;10463;52.378;9.688;2022-09-09T15:27:43;26.60;38.90
20610;DHT22;10463;52.378;9.688;2022-09-09T15:30:28;26.70;38.90
20610;DHT22;10463;52.378;9.688;2022-09-09T15:33:14;26.70;39.00
20610;DHT22;10463;52.378;9.688;2022-09-09T15:35:59;26.80;39.30
20610;DHT22;10463;52.378;9.688;2022-09-09T15:38:44;26.80;39.50
20610;DHT22;10463;52.378;9.688;2022-09-09T15:41:29;26.80;39.50
20610;DHT22;10463;52.378;9.688;2022-09-09T15:44:16;26.80;39.40
20610;DHT22;10463;52.378;9.688;2022-09-09T15:47:01;26.80;39.40
20610;DHT22;10463;52.378;9.688;2022-09-09T15:49:48;26.90;39.40
20610;DHT22;10463;52.378;9.688;2022-09-09T15:52:32;26.90;39.30
20610;DHT22;10463;52.378;9.688;2022-09-09T15:55:17;26.90;39.20
20610;DHT22;10463;52.378;9.688;2022-09-09T15:58:02;26.90;39.20
20610;DHT22;10463;52.378;9.688;2022-09-09T16:00:46;26.90;39.20
20610;DHT22;10463;52.378;9.688;2022-09-09T16:03:34;26.90;39.20
20610;DHT22;10463;52.378;9.688;2022-09-09T16:06:23;26.90;39.20
20610;DHT22;10463;52.378;9.688;2022-09-09T16:09:08;27.00;39.30
20610;DHT22;10463;52.378;9.688;2022-09-09T16:11:56;27.00;39.30
20610;DHT22;10463;52.378;9.688;2022-09-09T16:14:43;27.00;39.20
20610;DHT22;10463;52.378;9.688;2022-09-09T16:17:27;27.00;39.20
20610;DHT22;10463;52.378;9.688;2022-09-09T16:20:12;27.10;39.10
20610;DHT22;10463;52.378;9.688;2022-09-09T16:23:00;27.10;39.10
20610;DHT22;10463;52.378;9.688;2022-09-09T16:25:53;27.10;39.00
20610;DHT22;10463;52.378;9.688;2022-09-09T16:28:39;27.10;38.90
20610;DHT22;10463;52.378;9.688;2022-09-09T16:31:25;27.10;38.90
20610;DHT22;10463;52.378;9.688;2022-09-09T16:34:12;27.10;38.80
20610;DHT22;10463;52.378;9.688;2022-09-09T16:36:56;27.10;38.70
20610;DHT22;10463;52.378;9.688;2022-09-09T16:39:42;27.20;38.70
20610;DHT22;10463;52.378;9.688;2022-09-09T16:42:27;27.20;39.40
20610;DHT22;10463;52.378;9.688;2022-09-09T16:45:12;27.20;38.60
20610;DHT22;10463;52.378;9.688;2022-09-09T16:47:57;27.20;38.60
20610;DHT22;10463;52.378;9.688;2022-09-09T16:50:42;27.20;38.60
20610;DHT22;10463;52.378;9.688;2022-09-09T16:53:26;27.20;38.60
20610;DHT22;10463;52.378;9.688;2022-09-09T16:56:15;27.20;39.20
20610;DHT22;10463;52.378;9.688;2022-09-09T16:59:03;27.20;38.50
20610;DHT22;10463;52.378;9.688;2022-09-09T17:01:50;27.20;38.40
20610;DHT22;10463;52.378;9.688;2022-09-09T17:04:36;27.20;39.10
20610;DHT22;10463;52.378;9.688;2022-09-09T17:07:20;27.20;38.40
20610;DHT22;10463;52.378;9.688;2022-09-09T17:10:08;27.20;39.10
20610;DHT22;10463;52.378;9.688;2022-09-09T17:12:54;27.20;38.40
20610;DHT22;10463;52.378;9.688;2022-09-09T17:15:40;27.20;38.40
20610;DHT22;10463;52.378;9.688;2022-09-09T17:18:27;27.20;38.40
20610;DHT22;10463;52.378;9.688;2022-09-09T17:21:16;27.20;39.00
20610;DHT22;10463;52.378;9.688;2022-09-09T17:24:03;27.20;38.30
20610;DHT22;10463;52.378;9.688;2022-09-09T17:26:48;27.30;38.40
20610;DHT22;10463;52.378;9.688;2022-09-09T17:29:33;27.20;38.20
20610;DHT22;10463;52.378;9.688;2022-09-09T17:32:20;27.30;38.10
20610;DHT22;10463;52.378;9.688;2022-09-09T17:35:06;27.20;38.00
20610;DHT22;10463;52.378;9.688;2022-09-09T17:37:52;27.20;37.90
20610;DHT22;10463;52.378;9.688;2022-09-09T17:40:38;27.20;37.90
20610;DHT22;10463;52.378;9.688;2022-09-09T17:43:23;27.20;37.90
20610;DHT22;10463;52.378;9.688;2022-09-09T17:46:11;27.20;37.90
20610;DHT22;10463;52.378;9.688;2022-09-09T17:48:59;27.20;37.90
20610;DHT22;10463;52.378;9.688;2022-09-09T17:51:45;27.10;38.60
20610;DHT22;10463;52.378;9.688;2022-09-09T17:54:30;27.10;38.00
20610;DHT22;10463;52.378;9.688;2022-09-09T17:57:15;27.10;38.10
20610;DHT22;10463;52.378;9.688;2022-09-09T18:00:03;27.20;38.20
20610;DHT22;10463;52.378;9.688;2022-09-09T18:02:58;27.10;38.10
20610;DHT22;10463;52.378;9.688;2022-09-09T18:05:43;27.10;38.10
20610;DHT22;10463;52.378;9.688;2022-09-09T18:08:27;27.10;38.10
20610;DHT22;10463;52.378;9.688;2022-09-09T18:11:13;27.10;38.10
20610;DHT22;10463;52.378;9.688;2022-09-09T18:14:02;27.20;38.20